Time;durP1;ratioP1;P1;durP2;ratioP2;P2;SDS_P1;SDS_P2;PMS_P1;PMS_P2;Temp;Humidity;BMP_temperature;BMP_pressure;BME280_temperature;BME280_humidity;BME280_pressure;Samples;Min_cycle;Max_cycle;Signal;HPM_P1;HPM_P2
2023/09/04 00:00:20;;;;;;;7.65;5.20;;;;;;;23.32;46.59;102407.47;4975920;28;20033;-61
2023/09/04 00:02:47;;;;;;;6.78;4.57;;;;;;;23.29;45.93;102416.03;4992719;28;20026;-62
2023/09/04 00:05:12;;;;;;;8.93;4.43;;;;;;;23.24;46.27;102412.97;4992323;28;20030;-63
2023/09/04 00:07:38;;;;;;;5.95;4.65;;;;;;;23.23;46.02;102411.22;4993379;28;20065;-61
2023/09/04 00:10:03;;;;;;;7.97;4.60;;;;;;;23.18;46.75;102408.16;4976031;28;20042;-63
2023/09/04 00:12:29;;;;;;;6.88;4.70;;;;;;;23.13;46.07;102405.09;4992035;28;20053;-61
2023/09/04 00:14:54;;;;;;;9.90;5.82;;;;;;;23.10;45.97;102410.91;4975860;28;20026;-62
2023/09/04 00:17:20;;;;;;;8.23;5.72;;;;;;;23.08;46.63;102412.97;4993990;28;20023;-61
2023/09/04 00:19:46;;;;;;;7.22;4.68;;;;;;;23.04;46.06;102406.13;4995935;28;20039;-62
2023/09/04 00:22:12;;;;;;;9.05;5.60;;;;;;;23.02;46.67;102408.19;4996070;28;20026;-62
2023/09/04 00:24:37;;;;;;;7.22;4.93;;;;;;;22.97;46.78;102405.13;4997386;28;20048;-61
2023/09/04 00:27:03;;;;;;;7.38;4.70;;;;;;;22.91;46.82;102398.47;4995936;28;20474;-62
2023/09/04 00:29:28;;;;;;;8.57;5.07;;;;;;;22.85;46.67;102398.28;4979507;28;20473;-62
2023/09/04 00:31:54;;;;;;;6.13;4.43;;;;;;;22.80;46.46;102397.94;4995928;28;20077;-62
2023/09/04 00:34:19;;;;;;;5.75;4.40;;;;;;;22.78;45.96;102400.00;4996076;28;20030;-61
2023/09/04 00:36:45;;;;;;;9.43;5.57;;;;;;;22.75;47.08;102394.88;4997410;28;20046;-61
2023/09/04 00:39:10;;;;;;;10.40;4.65;;;;;;;22.69;47.37;102390.09;4996870;28;20015;-62
2023/09/04 00:41:35;;;;;;;6.28;4.78;;;;;;;22.66;46.58;102387.69;4996889;28;20027;-61
2023/09/04 00:44:01;;;;;;;6.90;4.90;;;;;;;22.65;46.40;102399.63;4979519;28;20026;-62
2023/09/04 00:46:26;;;;;;;8.43;5.18;;;;;;;22.59;47.51;102388.34;4997078;28;20018;-62
2023/09/04 00:48:52;;;;;;;11.25;4.57;;;;;;;22.59;47.39;102395.69;4995569;28;20029;-61
2023/09/04 00:51:18;;;;;;;7.70;5.28;;;;;;;22.54;46.79;102393.47;4988249;28;20019;-62
2023/09/04 00:53:44;;;;;;;7.47;5.18;;;;;;;22.50;47.16;102391.25;4995635;28;20053;-62
2023/09/04 00:56:10;;;;;;;10.88;6.05;;;;;;;22.48;46.78;102391.41;4995417;28;20026;-61
2023/09/04 00:58:35;;;;;;;10.65;6.20;;;;;;;22.47;47.09;102397.88;5011885;28;20077;-61
2023/09/04 01:01:02;;;;;;;5.18;3.80;;;;;;;22.44;47.39;102400.97;4996633;28;20450;-62
2023/09/04 01:03:29;;;;;;;10.57;5.07;;;;;;;22.44;47.57;102408.31;4995602;28;20174;-61
2023/09/04 01:05:55;;;;;;;6.88;4.70;;;;;;;22.39;46.84;102403.31;4995174;28;20037;-61
2023/09/04 01:08:21;;;;;;;10.25;5.50;;;;;;;22.38;47.20;102404.38;4995221;28;20041;-61
2023/09/04 01:11:20;;;;;;;9.52;5.85;;;;;;;22.36;47.20;102411.84;4995360;28;20038;-61
2023/09/04 01:13:54;;;;;;;12.98;6.75;;;;;;;22.33;47.59;102409.50;4996680;28;20041;-61
2023/09/04 01:16:21;;;;;;;10.70;6.45;;;;;;;22.33;46.75;102412.22;4994816;28;20505;-63
2023/09/04 01:18:47;;;;;;;6.40;4.35;;;;;;;22.27;47.35;102404.69;4994956;28;20054;-62
2023/09/04 01:21:12;;;;;;;5.20;4.13;;;;;;;22.24;47.42;102410.47;4995018;28;20081;-61
2023/09/04 01:23:37;;;;;;;10.40;5.85;;;;;;;22.20;47.49;102400.91;4996767;28;20498;-63
2023/09/04 01:26:06;;;;;;;7.80;5.13;;;;;;;22.19;47.32;102409.28;4997080;28;20092;-61
2023/09/04 01:28:43;;;;;;;7.28;5.57;;;;;;;22.15;46.79;102408.75;4996441;28;20034;-61
2023/09/04 01:31:18;;;;;;;8.93;5.95;;;;;;;22.11;47.38;102401.06;4979857;28;20038;-60
2023/09/04 01:33:49;;;;;;;14.32;7.25;;;;;;;22.07;47.33;102411.44;4997349;28;20031;-63
2023/09/04 01:36:16;;;;;;;11.68;6.47;;;;;;;22.04;46.72;102409.03;4995568;28;20041;-61
2023/09/04 01:38:44;;;;;;;12.07;7.70;;;;;;;22.01;47.22;102404.78;4979275;28;20105;-61
2023/09/04 01:41:10;;;;;;;10.27;6.13;;;;;;;22.00;47.44;102404.91;4995319;28;20109;-61
2023/09/04 01:43:36;;;;;;;10.00;6.30;;;;;;;21.97;47.15;102395.19;4996437;28;20042;-62
2023/09/04 01:46:01;;;;;;;12.27;6.13;;;;;;;21.98;47.06;102401.50;4978504;28;20038;-61
2023/09/04 01:48:26;;;;;;;9.63;6.15;;;;;;;21.95;47.52;102399.09;4996154;28;20096;-61
2023/09/04 01:50:53;;;;;;;14.48;7.18;;;;;;;21.92;46.96;102396.72;4994752;28;20524;-61
2023/09/04 01:53:19;;;;;;;9.13;6.15;;;;;;;21.89;46.95;102386.13;4994667;28;20425;-62
2023/09/04 01:55:44;;;;;;;9.73;6.35;;;;;;;21.87;47.33;102390.91;4995735;28;20065;-62
2023/09/04 01:58:10;;;;;;;11.98;6.80;;;;;;;21.83;47.40;102384.88;4995517;28;20037;-62
2023/09/04 02:00:35;;;;;;;10.02;6.18;;;;;;;21.80;47.25;102376.19;4994223;28;20502;-62
2023/09/04 02:03:00;;;;;;;9.13;6.35;;;;;;;21.82;47.11;102376.88;4991157;28;20073;-63
2023/09/04 02:05:26;;;;;;;11.55;6.60;;;;;;;21.78;47.69;102378.19;4991054;28;20034;-62
2023/09/04 02:07:51;;;;;;;9.90;6.53;;;;;;;21.74;47.32;102366.78;4994170;28;20093;-63
2023/09/04 02:10:17;;;;;;;10.77;7.07;;;;;;;21.74;46.99;102369.50;4994119;28;20034;-62
2023/09/04 02:12:42;;;;;;;12.55;6.88;;;;;;;21.73;47.90;102369.66;4994102;28;20046;-63
2023/09/04 02:15:08;;;;;;;13.20;7.00;;;;;;;21.68;47.65;102361.13;4995280;28;20457;-63
2023/09/04 02:17:33;;;;;;;12.52;6.95;;;;;;;21.66;47.34;102355.84;5010423;28;20120;-62
2023/09/04 02:19:59;;;;;;;13.65;6.80;;;;;;;21.65;47.18;102356.84;4995012;28;20038;-62
2023/09/04 02:22:25;;;;;;;7.80;5.50;;;;;;;21.65;48.01;102358.72;4994056;28;20093;-62
2023/09/04 02:24:50;;;;;;;14.80;5.97;;;;;;;21.61;47.50;102354.63;4995607;28;20438;-62
2023/09/04 02:27:16;;;;;;;8.50;5.53;;;;;;;21.60;47.96;102363.81;4995213;28;20044;-62
2023/09/04 02:29:41;;;;;;;13.32;6.10;;;;;;;21.55;47.10;102358.00;4977606;28;20117;-62
2023/09/04 02:32:07;;;;;;;11.15;6.35;;;;;;;21.50;47.38;102354.91;4994094;28;20066;-62
2023/09/04 02:34:32;;;;;;;10.15;7.00;;;;;;;21.45;47.61;102353.53;4995299;28;20030;-62
2023/09/04 02:36:58;;;;;;;12.05;6.72;;;;;;;21.44;47.62;102348.22;4996232;28;20550;-61
2023/09/04 02:39:25;;;;;;;12.40;5.97;;;;;;;21.41;47.40;102356.75;4995681;28;20037;-62
2023/09/04 02:41:50;;;;;;;13.15;7.50;;;;;;;21.39;47.16;102350.56;4979116;28;20034;-62
2023/09/04 02:44:16;;;;;;;11.73;7.32;;;;;;;21.34;47.72;102348.34;4995947;28;20494;-62
2023/09/04 02:46:41;;;;;;;9.57;6.35;;;;;;;21.33;47.24;102354.81;4995863;28;20054;-62
2023/09/04 02:49:06;;;;;;;11.15;6.93;;;;;;;21.32;47.67;102341.34;4996231;28;20038;-62
2023/09/04 02:51:33;;;;;;;11.95;7.43;;;;;;;21.31;47.56;102343.22;4996166;28;20038;-63
2023/09/04 02:53:58;;;;;;;14.45;7.22;;;;;;;21.29;47.56;102339.81;4994605;28;20410;-62
2023/09/04 02:56:24;;;;;;;10.35;6.43;;;;;;;21.31;47.65;102343.22;4994406;28;20045;-64
2023/09/04 02:58:49;;;;;;;11.15;6.25;;;;;;;21.31;47.81;102331.44;4994574;28;20034;-62
2023/09/04 03:01:16;;;;;;;13.25;7.18;;;;;;;21.32;48.20;102331.31;4993296;28;20413;-63
2023/09/04 03:03:41;;;;;;;10.63;6.50;;;;;;;21.31;48.02;102332.31;4993106;28;20039;-62
2023/09/04 03:06:10;;;;;;;12.05;7.22;;;;;;;21.29;48.18;102334.34;4993095;28;20379;-62
2023/09/04 03:08:37;;;;;;;9.02;5.93;;;;;;;21.32;47.86;102333.19;5009315;28;20030;-62
2023/09/04 03:11:09;;;;;;;11.18;6.88;;;;;;;21.32;48.09;102328.59;4992851;28;20034;-62
2023/09/04 03:13:34;;;;;;;11.40;6.65;;;;;;;21.35;48.34;102327.41;4994217;28;20145;-62
2023/09/04 03:16:00;;;;;;;11.68;6.40;;;;;;;21.38;48.21;102330.63;4994182;28;20147;-62
2023/09/04 03:18:25;;;;;;;12.02;7.30;;;;;;;21.42;48.38;102339.34;4994081;28;20036;-62
2023/09/04 03:20:50;;;;;;;9.93;6.43;;;;;;;21.43;48.98;102322.84;4973184;28;20123;-62
2023/09/04 03:23:16;;;;;;;12.05;6.43;;;;;;;21.45;48.46;102334.44;4993940;28;20513;-62
2023/09/04 03:25:41;;;;;;;10.55;6.15;;;;;;;21.47;48.45;102336.97;4994193;28;20034;-62
2023/09/04 03:28:06;;;;;;;11.27;7.35;;;;;;;21.50;48.12;102338.56;4994396;28;20031;-61
2023/09/04 03:30:34;;;;;;;12.48;6.78;;;;;;;21.52;48.57;102339.25;5011884;28;20414;-61
2023/09/04 03:32:59;;;;;;;10.65;6.45;;;;;;;21.54;49.02;102342.66;4997382;28;20042;-62
2023/09/04 03:35:25;;;;;;;11.07;6.43;;;;;;;21.55;48.44;102338.91;4998403;28;20029;-62
2023/09/04 03:37:51;;;;;;;13.05;7.45;;;;;;;21.57;48.81;102328.69;4997664;28;20018;-62
2023/09/04 03:40:23;;;;;;;17.92;6.78;;;;;;;21.61;49.23;102328.19;5012535;28;20045;-62
2023/09/04 03:42:49;;;;;;;11.35;7.40;;;;;;;21.61;48.41;102322.72;4976575;28;20026;-62
2023/09/04 03:45:14;;;;;;;9.43;6.53;;;;;;;21.64;48.71;102321.53;5008889;28;20037;-62
2023/09/04 03:47:40;;;;;;;10.95;7.00;;;;;;;21.68;48.30;102323.78;4993019;28;20026;-62
2023/09/04 03:50:09;;;;;;;11.50;6.78;;;;;;;21.70;49.09;102331.78;4993609;28;20065;-62
2023/09/04 03:52:34;;;;;;;13.38;6.55;;;;;;;21.66;49.11;102322.25;4993576;28;20030;-62
2023/09/04 03:55:00;;;;;;;12.52;6.60;;;;;;;21.69;48.07;102332.84;4993768;28;20065;-61
2023/09/04 03:57:25;;;;;;;8.82;5.90;;;;;;;21.68;48.58;102333.84;4992382;28;20065;-62
2023/09/04 03:59:53;;;;;;;9.85;6.28;;;;;;;21.68;48.34;102336.56;4992289;28;20026;-61
2023/09/04 04:02:19;;;;;;;10.32;6.38;;;;;;;21.65;48.61;102340.47;4992274;28;20073;-61
2023/09/04 04:04:45;;;;;;;11.75;6.25;;;;;;;21.58;48.61;102333.13;4992517;28;20490;-61
2023/09/04 04:07:10;;;;;;;12.25;6.35;;;;;;;21.62;49.10;102337.22;4993649;28;20046;-61
2023/09/04 04:09:35;;;;;;;10.82;5.88;;;;;;;21.59;48.77;102340.28;4992450;28;20121;-61
2023/09/04 04:12:01;;;;;;;12.15;7.43;;;;;;;21.53;47.73;102336.34;4992807;28;20494;-61
2023/09/04 04:14:26;;;;;;;20.13;6.18;;;;;;;21.53;48.93;102330.03;4994400;28;20034;-61
2023/09/04 04:16:51;;;;;;;8.90;5.97;;;;;;;21.49;47.73;102332.25;4993366;28;20037;-61
2023/09/04 04:19:17;;;;;;;10.50;5.85;;;;;;;21.46;48.25;102333.44;4993341;28;20031;-61
2023/09/04 04:21:42;;;;;;;12.23;5.93;;;;;;;21.45;47.96;102334.44;4993266;28;20069;-61
2023/09/04 04:24:07;;;;;;;11.07;6.75;;;;;;;21.44;48.81;102334.56;5008575;28;20053;-61
2023/09/04 04:26:33;;;;;;;10.68;6.47;;;;;;;21.44;48.35;102335.44;4992230;28;20499;-61
2023/09/04 04:28:58;;;;;;;12.27;6.90;;;;;;;21.44;48.37;102332.72;4993178;28;20034;-61
2023/09/04 04:31:23;;;;;;;10.68;6.57;;;;;;;21.43;48.25;102330.16;4993263;28;20048;-61
2023/09/04 04:33:49;;;;;;;12.25;6.47;;;;;;;21.41;48.88;102333.03;4992031;28;20503;-61
2023/09/04 04:36:14;;;;;;;12.52;6.95;;;;;;;21.41;48.26;102338.50;4992273;28;20072;-61
2023/09/04 04:38:40;;;;;;;10.60;6.07;;;;;;;21.39;48.70;102335.06;4991936;28;20031;-61
2023/09/04 04:41:05;;;;;;;11.02;5.80;;;;;;;21.34;48.35;102332.00;4993161;28;20451;-61
2023/09/04 04:43:31;;;;;;;11.15;5.32;;;;;;;21.30;48.67;102336.03;4992208;28;20035;-60
2023/09/04 04:45:57;;;;;;;10.23;5.85;;;;;;;21.27;48.61;102325.47;4991648;28;20034;-63
2023/09/04 04:48:22;;;;;;;8.82;5.47;;;;;;;21.22;48.09;102327.81;4993189;28;20026;-63
2023/09/04 04:50:47;;;;;;;9.27;6.32;;;;;;;21.22;48.59;102332.41;4988527;28;20038;-61
2023/09/04 04:53:13;;;;;;;10.18;6.80;;;;;;;21.19;48.85;102327.31;4976550;28;20034;-61
2023/09/04 04:55:38;;;;;;;11.82;5.88;;;;;;;21.17;49.02;102324.75;4975933;28;20621;-61
2023/09/04 04:58:03;;;;;;;11.98;6.90;;;;;;;21.15;48.96;102326.78;4993294;28;20034;-61
2023/09/04 05:00:29;;;;;;;12.18;6.22;;;;;;;21.17;48.76;102324.75;4991898;28;20030;-61
2023/09/04 05:02:54;;;;;;;12.23;7.13;;;;;;;21.19;48.97;102319.13;4993069;28;20133;-61
2023/09/04 05:05:20;;;;;;;11.63;6.32;;;;;;;21.20;48.55;102316.25;4997124;28;20478;-61
2023/09/04 05:07:45;;;;;;;11.98;6.50;;;;;;;21.22;49.20;102310.59;4996748;28;20053;-61
2023/09/04 05:10:11;;;;;;;12.32;6.60;;;;;;;21.25;49.24;102308.41;4996907;28;20045;-60
2023/09/04 05:12:36;;;;;;;12.93;7.38;;;;;;;21.29;48.77;102315.28;4995471;28;20394;-61
2023/09/04 05:15:03;;;;;;;11.27;6.60;;;;;;;21.33;49.21;102313.91;4996800;28;20050;-61
2023/09/04 05:17:28;;;;;;;9.70;5.53;;;;;;;21.35;49.77;102311.91;4996587;28;20085;-61
2023/09/04 05:19:53;;;;;;;9.43;6.65;;;;;;;21.40;49.15;102314.97;4996356;28;20088;-62
2023/09/04 05:22:19;;;;;;;10.60;6.90;;;;;;;21.47;49.25;102309.72;4996266;28;20486;-61
2023/09/04 05:24:44;;;;;;;12.20;6.15;;;;;;;21.56;49.57;102310.59;4991901;28;20139;-61
2023/09/04 05:27:09;;;;;;;14.80;6.95;;;;;;;21.64;49.56;102316.09;4980639;28;20453;-62
2023/09/04 05:29:35;;;;;;;11.48;6.53;;;;;;;21.71;49.58;102319.88;4996203;28;20129;-62
2023/09/04 05:32:00;;;;;;;9.00;5.65;;;;;;;21.78;49.53;102313.59;4996370;28;20473;-60
2023/09/04 05:34:25;;;;;;;9.05;5.82;;;;;;;21.87;48.94;102311.78;4995075;28;20376;-63
2023/09/04 05:36:52;;;;;;;14.52;7.07;;;;;;;21.96;48.43;102313.50;4994970;28;20053;-61
2023/09/04 05:39:19;;;;;;;9.40;6.05;;;;;;;22.04;48.64;102316.25;4994917;28;20033;-61
2023/09/04 05:41:45;;;;;;;12.52;6.18;;;;;;;22.14;48.85;102324.28;4996009;28;20409;-61
2023/09/04 05:44:11;;;;;;;13.30;6.65;;;;;;;22.24;49.11;102320.38;4995052;28;20041;-61
2023/09/04 05:46:36;;;;;;;10.10;6.63;;;;;;;22.37;48.01;102315.25;4995898;28;20031;-61
2023/09/04 05:49:02;;;;;;;10.02;6.82;;;;;;;22.48;48.54;102323.13;4995611;28;20033;-62
2023/09/04 05:51:28;;;;;;;15.00;6.13;;;;;;;22.64;48.47;102335.94;4995605;28;20069;-63
2023/09/04 05:53:53;;;;;;;9.95;5.80;;;;;;;22.79;48.19;102333.38;4994453;28;20030;-63
2023/09/04 05:56:18;;;;;;;10.85;7.22;;;;;;;22.94;47.97;102328.94;4995588;28;20034;-63
2023/09/04 05:58:51;;;;;;;13.48;6.95;;;;;;;23.08;48.84;102330.97;5010765;28;20042;-63
2023/09/04 06:01:17;;;;;;;14.07;6.40;;;;;;;23.23;48.69;102329.19;5010421;28;20513;-63
2023/09/04 06:03:44;;;;;;;9.40;6.43;;;;;;;23.39;48.22;102321.00;4995700;28;20038;-62
2023/09/04 06:06:09;;;;;;;13.40;5.95;;;;;;;23.54;48.20;102316.47;4995444;28;20023;-62
2023/09/04 06:08:35;;;;;;;11.27;6.60;;;;;;;23.65;47.92;102310.59;5010258;28;20034;-62
2023/09/04 06:11:02;;;;;;;11.25;6.28;;;;;;;23.71;47.72;102301.69;4994059;28;20034;-62
2023/09/04 06:13:27;;;;;;;9.27;5.60;;;;;;;23.72;47.93;102306.16;4993978;28;20104;-61
2023/09/04 06:15:53;;;;;;;14.07;6.28;;;;;;;23.68;48.30;102306.66;4995149;28;20046;-61
2023/09/04 06:18:19;;;;;;;9.55;5.47;;;;;;;23.68;48.09;102293.84;4993745;28;20094;-63
2023/09/04 06:20:45;;;;;;;8.93;5.78;;;;;;;23.75;48.41;102297.56;4993673;28;20049;-61
2023/09/04 06:23:10;;;;;;;8.93;5.55;;;;;;;23.83;48.21;102293.06;4990756;28;20435;-62
2023/09/04 06:25:39;;;;;;;8.93;5.70;;;;;;;23.86;48.44;102281.78;4982692;28;20042;-63
2023/09/04 06:28:06;;;;;;;10.45;5.82;;;;;;;23.95;48.22;102286.16;4993732;28;20042;-61
2023/09/04 06:30:31;;;;;;;9.02;5.45;;;;;;;24.03;48.42;102284.22;4994815;28;20117;-62
2023/09/04 06:32:56;;;;;;;10.65;5.55;;;;;;;24.12;48.27;102282.31;4977227;28;20379;-61
2023/09/04 06:35:22;;;;;;;12.90;5.72;;;;;;;24.24;48.23;102275.34;5009683;28;20077;-62
2023/09/04 06:37:47;;;;;;;8.73;5.97;;;;;;;24.32;48.39;102278.03;4993308;28;20035;-61
2023/09/04 06:40:13;;;;;;;9.55;5.13;;;;;;;24.40;47.92;102282.63;4990159;28;20038;-61
2023/09/04 06:42:38;;;;;;;8.63;5.13;;;;;;;24.50;48.35;102274.97;4984731;28;20035;-62
2023/09/04 06:45:04;;;;;;;6.85;4.70;;;;;;;24.66;48.49;102281.16;4994696;28;20042;-61
2023/09/04 06:47:29;;;;;;;13.05;5.22;;;;;;;24.89;48.04;102279.25;4993121;28;20441;-62
2023/09/04 06:49:55;;;;;;;8.30;5.30;;;;;;;25.06;47.74;102282.66;5009294;28;20041;-62
2023/09/04 06:52:20;;;;;;;8.82;5.07;;;;;;;25.25;47.96;102276.59;4993115;28;20130;-62
2023/09/04 06:54:45;;;;;;;7.57;4.88;;;;;;;25.44;46.87;102277.91;4973604;28;20061;-62
2023/09/04 06:57:11;;;;;;;9.68;4.60;;;;;;;25.64;47.35;102270.81;4983517;28;20516;-61
2023/09/04 06:59:36;;;;;;;8.40;4.60;;;;;;;25.97;47.05;102282.16;4994636;28;20026;-63
2023/09/04 07:02:03;;;;;;;7.00;4.00;;;;;;;26.18;47.07;102278.63;5009094;28;20128;-62
2023/09/04 07:04:28;;;;;;;8.70;4.93;;;;;;;26.42;46.38;102292.81;4992763;28;20477;-62
2023/09/04 07:06:53;;;;;;;7.82;4.57;;;;;;;26.61;46.70;102289.38;4993016;28;20125;-61
2023/09/04 07:09:19;;;;;;;6.43;4.20;;;;;;;26.89;46.42;102294.91;4994525;28;20381;-62
2023/09/04 07:11:45;;;;;;;9.18;4.85;;;;;;;27.20;45.67;102297.25;4993989;28;20565;-61
2023/09/04 07:14:11;;;;;;;5.78;4.20;;;;;;;27.49;45.83;102287.91;4992818;28;20034;-62
2023/09/04 07:16:37;;;;;;;7.32;4.40;;;;;;;27.79;45.65;102280.16;4994124;28;20049;-62
2023/09/04 07:19:03;;;;;;;5.15;4.30;;;;;;;28.07;45.08;102286.44;4994079;28;20034;-62
2023/09/04 07:21:29;;;;;;;5.82;3.58;;;;;;;28.38;45.03;102288.59;5009073;28;20054;-63
2023/09/04 07:23:54;;;;;;;9.10;4.05;;;;;;;28.66;44.37;102283.75;5011664;28;20077;-62
2023/09/04 07:26:19;;;;;;;4.95;3.63;;;;;;;28.95;44.82;102277.78;5013377;28;20038;-62
2023/09/04 07:28:45;;;;;;;4.28;3.17;;;;;;;29.23;44.73;102281.13;5012397;28;20041;-62
2023/09/04 07:31:17;;;;;;;8.90;3.65;;;;;;;29.52;43.86;102285.31;5013412;28;20034;-63
2023/09/04 07:33:43;;;;;;;6.13;3.75;;;;;;;29.79;43.44;102291.53;5013441;28;20530;-62
2023/09/04 07:36:08;;;;;;;4.65;3.53;;;;;;;30.01;43.17;102296.56;5013382;28;20065;-62
2023/09/04 07:38:34;;;;;;;4.78;3.60;;;;;;;30.19;43.12;102290.28;5012101;28;20064;-62
2023/09/04 07:41:00;;;;;;;5.70;3.55;;;;;;;30.38;42.83;102292.09;4995508;28;20038;-62
2023/09/04 07:43:26;;;;;;;7.10;3.92;;;;;;;30.60;42.53;102286.19;5011866;28;20128;-62
2023/09/04 07:45:52;;;;;;;5.53;3.30;;;;;;;30.73;42.33;102286.91;5012013;28;20041;-62
2023/09/04 07:48:18;;;;;;;4.93;3.40;;;;;;;30.89;41.78;102283.56;5013253;28;20088;-63
2023/09/04 07:50:44;;;;;;;4.55;2.75;;;;;;;31.08;41.68;102281.69;5013157;28;20042;-62
2023/09/04 07:53:09;;;;;;;6.90;3.50;;;;;;;31.29;40.75;102283.16;5012982;28;20054;-62
2023/09/04 07:55:34;;;;;;;5.97;3.50;;;;;;;31.46;41.09;102268.47;5012995;28;20484;-63
2023/09/04 07:58:00;;;;;;;5.10;3.22;;;;;;;31.67;40.72;102276.31;5013148;28;20087;-63
2023/09/04 08:00:26;;;;;;;4.90;3.25;;;;;;;31.86;40.93;102267.94;5013218;28;20553;-63
2023/09/04 08:02:51;;;;;;;5.97;3.05;;;;;;;32.02;40.24;102278.44;5013161;28;20034;-65
2023/09/04 08:05:16;;;;;;;4.82;2.90;;;;;;;32.13;40.38;102267.34;5011863;28;20030;-63
2023/09/04 08:07:42;;;;;;;4.57;3.28;;;;;;;32.22;40.21;102267.84;5011827;28;20026;-62
2023/09/04 08:10:07;;;;;;;3.33;2.60;;;;;;;32.32;39.57;102268.13;5012931;28;20034;-62
2023/09/04 08:12:33;;;;;;;2.97;2.30;;;;;;;32.45;39.48;102267.91;5013108;28;20062;-63
2023/09/04 08:14:58;;;;;;;5.45;3.20;;;;;;;32.65;38.62;102268.44;5011636;28;20502;-63
2023/09/04 08:17:25;;;;;;;4.63;3.40;;;;;;;32.80;39.21;102273.53;5011480;28;20413;-63
2023/09/04 08:19:51;;;;;;;4.90;2.70;;;;;;;32.85;38.56;102268.09;5011438;28;20046;-63
2023/09/04 08:22:16;;;;;;;3.38;2.40;;;;;;;32.84;38.64;102270.03;5011441;28;20042;-62
2023/09/04 08:24:42;;;;;;;4.55;2.42;;;;;;;32.87;39.19;102270.63;4995171;28;20125;-62
2023/09/04 08:27:07;;;;;;;3.90;2.50;;;;;;;32.88;38.74;102261.22;5011645;28;20033;-63
2023/09/04 08:29:33;;;;;;;2.55;1.92;;;;;;;32.92;38.25;102267.94;5012755;28;20502;-63
2023/09/04 08:31:58;;;;;;;4.03;2.10;;;;;;;33.07;37.69;102263.66;4995023;28;20084;-63
2023/09/04 08:34:23;;;;;;;4.32;2.38;;;;;;;33.23;37.82;102259.25;5012830;28;20470;-63
2023/09/04 08:36:49;;;;;;;2.90;2.08;;;;;;;33.29;37.71;102252.72;5012883;28;20030;-63
2023/09/04 08:39:14;;;;;;;6.13;2.25;;;;;;;33.39;37.09;102259.34;5016429;28;20033;-63
2023/09/04 08:41:41;;;;;;;3.67;2.00;;;;;;;33.44;36.38;102249.44;5016751;28;20030;-63
2023/09/04 08:44:08;;;;;;;8.07;2.38;;;;;;;33.46;36.37;102250.88;5015299;28;20031;-63
2023/09/04 08:46:35;;;;;;;6.25;2.58;;;;;;;33.50;37.34;102256.78;5015352;28;20038;-62
2023/09/04 08:49:02;;;;;;;3.03;2.22;;;;;;;33.59;35.93;102253.38;5016321;28;20038;-63
2023/09/04 08:51:29;;;;;;;2.45;1.77;;;;;;;33.68;36.74;102257.47;5015404;28;20029;-62
2023/09/04 08:53:55;;;;;;;2.50;2.00;;;;;;;33.72;35.72;102252.25;5015251;28;20041;-62
2023/09/04 08:56:21;;;;;;;1.92;1.73;;;;;;;33.75;35.91;102241.47;4998877;28;20197;-62
2023/09/04 08:58:47;;;;;;;3.63;1.90;;;;;;;33.84;36.02;102251.09;5016175;28;20120;-62
2023/09/04 09:01:13;;;;;;;2.03;1.80;;;;;;;33.92;36.20;102249.88;5015130;28;20117;-62
2023/09/04 09:03:40;;;;;;;3.47;2.65;;;;;;;34.03;36.07;102250.91;5014900;28;20493;-62
2023/09/04 09:06:06;;;;;;;2.10;1.90;;;;;;;34.15;35.93;102246.13;4998547;28;20038;-62
2023/09/04 09:08:32;;;;;;;1.92;1.63;;;;;;;34.27;35.97;102238.56;5015048;28;20409;-62
2023/09/04 09:10:58;;;;;;;3.22;1.85;;;;;;;34.40;35.52;102241.84;5014782;28;20042;-61
2023/09/04 09:13:23;;;;;;;6.28;2.22;;;;;;;34.54;35.11;102257.13;5016132;28;20038;-62
2023/09/04 09:15:48;;;;;;;3.28;1.83;;;;;;;34.70;35.49;102255.47;5015996;28;20073;-61
2023/09/04 09:18:37;;;;;;;4.05;2.45;;;;;;;34.73;34.41;102254.13;4998325;28;20037;-62
2023/09/04 09:21:23;;;;;;;5.40;2.13;;;;;;;34.75;34.90;102249.13;5014140;28;20057;-62
2023/09/04 09:24:08;;;;;;;3.53;1.85;;;;;;;34.80;35.32;102244.47;5015850;28;20061;-62
2023/09/04 09:26:34;;;;;;;3.47;2.50;;;;;;;34.88;34.88;102238.47;4998283;28;20044;-62
2023/09/04 09:29:02;;;;;;;2.30;2.03;;;;;;;35.02;34.43;102247.28;5014563;28;20038;-62
2023/09/04 09:31:28;;;;;;;3.72;2.33;;;;;;;35.04;34.56;102247.88;5014633;28;20120;-62
2023/09/04 09:33:54;;;;;;;3.40;2.65;;;;;;;35.08;34.99;102244.34;5014717;28;20497;-63
2023/09/04 09:36:19;;;;;;;4.40;2.63;;;;;;;35.19;34.27;102248.13;5015627;28;20096;-63
2023/09/04 09:38:45;;;;;;;3.63;2.50;;;;;;;35.45;34.03;102235.34;5015500;28;20073;-62
2023/09/04 09:41:12;;;;;;;5.50;2.47;;;;;;;35.92;33.92;102232.81;5015820;28;20042;-62
2023/09/04 09:43:38;;;;;;;5.55;2.40;;;;;;;36.47;33.33;102232.50;5017391;28;20034;-62
2023/09/04 09:46:07;;;;;;;3.33;2.33;;;;;;;37.26;32.21;102231.38;5014220;28;20490;-61
2023/09/04 09:48:32;;;;;;;4.38;2.28;;;;;;;38.78;30.32;102231.66;5013942;28;20038;-62
2023/09/04 09:50:58;;;;;;;3.88;1.85;;;;;;;40.26;29.13;102222.22;5015227;28;20104;-62
2023/09/04 09:53:24;;;;;;;3.97;2.42;;;;;;;39.89;29.69;102223.63;5014250;28;20080;-62
2023/09/04 09:55:50;;;;;;;2.95;1.80;;;;;;;39.42;30.57;102224.13;5015030;28;20057;-64
2023/09/04 09:58:16;;;;;;;6.25;2.60;;;;;;;39.13;29.98;102225.94;5014530;28;20030;-62
2023/09/04 10:00:42;;;;;;;2.38;2.00;;;;;;;38.94;30.46;102222.06;5013610;28;20030;-62
2023/09/04 10:03:08;;;;;;;2.53;1.92;;;;;;;38.85;30.80;102221.81;4997599;28;20067;-62
2023/09/04 10:05:34;;;;;;;5.15;2.30;;;;;;;38.92;30.68;102227.09;5013541;28;20037;-62
2023/09/04 10:08:01;;;;;;;4.15;2.60;;;;;;;39.08;30.50;102223.16;4997192;28;20041;-63
2023/09/04 10:10:49;;;;;;;3.78;2.28;;;;;;;39.25;29.91;102226.47;5014765;28;20099;-62
2023/09/04 10:13:22;;;;;;;4.72;2.47;;;;;;;39.43;29.83;102217.41;5014814;28;20034;-61
2023/09/04 10:15:51;;;;;;;2.95;2.10;;;;;;;39.75;29.69;102210.50;5013398;28;20040;-61
2023/09/04 10:18:30;;;;;;;2.33;2.05;;;;;;;40.06;29.89;102200.75;5013416;28;20030;-61
2023/09/04 10:20:57;;;;;;;2.33;2.13;;;;;;;40.29;28.86;102191.56;5013253;28;20064;-62
2023/09/04 10:23:24;;;;;;;3.63;1.75;;;;;;;40.58;28.48;102200.00;5014562;28;20030;-62
2023/09/04 10:26:07;;;;;;;5.20;2.00;;;;;;;40.84;28.72;102194.94;5013368;28;20041;-60
2023/09/04 10:28:37;;;;;;;4.20;1.90;;;;;;;41.00;28.33;102191.69;5014621;28;20409;-62
2023/09/04 10:31:03;;;;;;;4.05;2.10;;;;;;;41.12;28.50;102194.06;5013086;28;20038;-60
2023/09/04 10:33:29;;;;;;;8.35;2.38;;;;;;;41.20;27.97;102196.22;5013376;28;20387;-61
2023/09/04 10:35:54;;;;;;;5.55;1.83;;;;;;;41.39;28.00;102204.69;5012743;28;20460;-61
2023/09/04 10:38:23;;;;;;;2.13;1.73;;;;;;;41.45;27.73;102204.34;5013460;28;20101;-62
2023/09/04 10:40:49;;;;;;;3.63;2.30;;;;;;;41.63;27.82;102195.03;5012991;28;20018;-62
2023/09/04 10:43:14;;;;;;;4.50;1.70;;;;;;;41.80;27.41;102189.75;5014528;28;20028;-62
2023/09/04 10:45:40;;;;;;;3.13;2.28;;;;;;;41.97;26.90;102188.34;5012974;28;20024;-61
2023/09/04 10:48:06;;;;;;;2.17;1.83;;;;;;;42.12;26.79;102191.75;4996792;28;20022;-62
2023/09/04 10:50:39;;;;;;;1.52;1.40;;;;;;;42.17;26.72;102188.03;5016208;28;20026;-62
2023/09/04 10:53:06;;;;;;;2.03;1.67;;;;;;;42.18;26.59;102184.09;5018369;28;20457;-62
2023/09/04 10:55:34;;;;;;;2.17;1.40;;;;;;;42.20;26.37;102181.78;5018335;28;20022;-63
2023/09/04 10:58:04;;;;;;;5.22;1.55;;;;;;;42.20;26.41;102168.53;5017660;28;20034;-62
2023/09/04 11:00:33;;;;;;;4.40;1.90;;;;;;;42.30;26.15;102175.94;5014562;28;20378;-62
2023/09/04 11:03:13;;;;;;;2.58;1.70;;;;;;;42.36;26.40;102163.44;5016609;28;20030;-62
2023/09/04 11:06:20;;;;;;;3.05;1.50;;;;;;;42.51;26.59;102163.16;5016188;28;20485;-62
2023/09/04 11:08:50;;;;;;;1.65;1.45;;;;;;;42.54;26.46;102159.72;4996284;28;20080;-63
2023/09/04 11:11:20;;;;;;;2.67;1.60;;;;;;;42.55;26.17;102154.97;4995309;28;20084;-62
2023/09/04 11:13:45;;;;;;;2.63;1.55;;;;;;;42.62;25.69;102150.56;5012271;28;20042;-63
2023/09/04 11:16:15;;;;;;;5.20;1.60;;;;;;;42.71;25.90;102154.34;4995470;28;20117;-62
2023/09/04 11:18:40;;;;;;;4.72;1.70;;;;;;;42.74;25.93;102153.72;5011809;28;20029;-61